sensor_id;sensor_type;location;lat;lon;timestamp;P1;durP1;ratioP1;P2;durP2;ratioP2
76867;SDS011;66168;45.478;11.060;2023-04-24T00:01:06;5.00;;;4.50;;
76867;SDS011;66168;45.478;11.060;2023-04-24T00:03:34;5.40;;;4.10;;
76867;SDS011;66168;45.478;11.060;2023-04-24T00:06:01;5.60;;;4.40;;
76867;SDS011;66168;45.478;11.060;2023-04-24T00:08:29;6.00;;;5.10;;
76867;SDS011;66168;45.478;11.060;2023-04-24T00:10:56;4.90;;;4.40;;
76867;SDS011;66168;45.478;11.060;2023-04-24T00:13:23;7.10;;;4.60;;
76867;SDS011;66168;45.478;11.060;2023-04-24T00:15:50;5.30;;;4.40;;
76867;SDS011;66168;45.478;11.060;2023-04-24T00:18:17;5.10;;;4.50;;
76867;SDS011;66168;45.478;11.060;2023-04-24T00:23:29;5.30;;;4.00;;
76867;SDS011;66168;45.478;11.060;2023-04-24T00:25:56;6.50;;;4.70;;
76867;SDS011;66168;45.478;11.060;2023-04-24T00:28:23;5.50;;;4.80;;
76867;SDS011;66168;45.478;11.060;2023-04-24T00:30:49;7.90;;;4.80;;
76867;SDS011;66168;45.478;11.060;2023-04-24T00:33:18;5.80;;;4.60;;
76867;SDS011;66168;45.478;11.060;2023-04-24T00:35:44;5.00;;;4.50;;
76867;SDS011;66168;45.478;11.060;2023-04-24T00:38:11;5.30;;;4.20;;
76867;SDS011;66168;45.478;11.060;2023-04-24T00:40:38;5.40;;;4.40;;
76867;SDS011;66168;45.478;11.060;2023-04-24T00:43:05;7.00;;;4.90;;
76867;SDS011;66168;45.478;11.060;2023-04-24T00:45:34;7.00;;;5.50;;
76867;SDS011;66168;45.478;11.060;2023-04-24T00:48:01;8.60;;;5.20;;
76867;SDS011;66168;45.478;11.060;2023-04-24T00:50:28;6.30;;;4.90;;
76867;SDS011;66168;45.478;11.060;2023-04-24T00:52:56;6.20;;;5.30;;
76867;SDS011;66168;45.478;11.060;2023-04-24T00:55:23;6.40;;;5.10;;
76867;SDS011;66168;45.478;11.060;2023-04-24T00:57:52;6.50;;;5.30;;
76867;SDS011;66168;45.478;11.060;2023-04-24T01:00:19;7.70;;;5.40;;
76867;SDS011;66168;45.478;11.060;2023-04-24T01:02:46;8.00;;;5.60;;
76867;SDS011;66168;45.478;11.060;2023-04-24T01:05:14;9.00;;;5.60;;
76867;SDS011;66168;45.478;11.060;2023-04-24T01:07:43;7.80;;;5.80;;
76867;SDS011;66168;45.478;11.060;2023-04-24T01:10:13;8.10;;;6.10;;
76867;SDS011;66168;45.478;11.060;2023-04-24T01:12:40;8.10;;;6.10;;
76867;SDS011;66168;45.478;11.060;2023-04-24T01:15:07;7.40;;;6.30;;
76867;SDS011;66168;45.478;11.060;2023-04-24T01:17:35;8.60;;;6.20;;
76867;SDS011;66168;45.478;11.060;2023-04-24T01:20:02;8.90;;;6.60;;
76867;SDS011;66168;45.478;11.060;2023-04-24T01:22:35;7.60;;;6.30;;
76867;SDS011;66168;45.478;11.060;2023-04-24T01:25:02;7.20;;;6.20;;
76867;SDS011;66168;45.478;11.060;2023-04-24T01:27:29;7.10;;;6.00;;
76867;SDS011;66168;45.478;11.060;2023-04-24T01:29:56;8.70;;;6.90;;
76867;SDS011;66168;45.478;11.060;2023-04-24T01:32:24;7.90;;;5.80;;
76867;SDS011;66168;45.478;11.060;2023-04-24T01:34:51;8.90;;;7.30;;
76867;SDS011;66168;45.478;11.060;2023-04-24T01:37:18;9.50;;;6.90;;
76867;SDS011;66168;45.478;11.060;2023-04-24T01:39:45;9.20;;;6.80;;
76867;SDS011;66168;45.478;11.060;2023-04-24T01:42:12;9.20;;;7.50;;
76867;SDS011;66168;45.478;11.060;2023-04-24T01:44:39;12.80;;;8.90;;
76867;SDS011;66168;45.478;11.060;2023-04-24T01:47:07;9.60;;;7.60;;
76867;SDS011;66168;45.478;11.060;2023-04-24T01:49:34;8.80;;;6.90;;
76867;SDS011;66168;45.478;11.060;2023-04-24T01:52:01;11.50;;;8.50;;
76867;SDS011;66168;45.478;11.060;2023-04-24T01:54:29;11.10;;;8.30;;
76867;SDS011;66168;45.478;11.060;2023-04-24T01:56:56;11.30;;;8.20;;
76867;SDS011;66168;45.478;11.060;2023-04-24T01:59:23;10.30;;;8.70;;
76867;SDS011;66168;45.478;11.060;2023-04-24T02:01:52;11.50;;;9.00;;
76867;SDS011;66168;45.478;11.060;2023-04-24T02:04:18;13.60;;;9.40;;
76867;SDS011;66168;45.478;11.060;2023-04-24T02:06:46;13.30;;;9.30;;
76867;SDS011;66168;45.478;11.060;2023-04-24T02:09:13;10.40;;;8.70;;
76867;SDS011;66168;45.478;11.060;2023-04-24T02:11:39;12.70;;;9.80;;
76867;SDS011;66168;45.478;11.060;2023-04-24T02:14:06;13.40;;;10.60;;
76867;SDS011;66168;45.478;11.060;2023-04-24T02:16:33;14.30;;;10.40;;
76867;SDS011;66168;45.478;11.060;2023-04-24T02:19:00;14.50;;;10.40;;
76867;SDS011;66168;45.478;11.060;2023-04-24T02:21:26;12.60;;;10.00;;
76867;SDS011;66168;45.478;11.060;2023-04-24T02:23:54;12.30;;;10.50;;
76867;SDS011;66168;45.478;11.060;2023-04-24T02:26:21;13.80;;;10.00;;
76867;SDS011;66168;45.478;11.060;2023-04-24T02:28:50;10.40;;;8.70;;
76867;SDS011;66168;45.478;11.060;2023-04-24T02:31:19;13.10;;;9.40;;
76867;SDS011;66168;45.478;11.060;2023-04-24T02:33:47;12.80;;;9.40;;
76867;SDS011;66168;45.478;11.060;2023-04-24T02:36:14;10.50;;;8.20;;
76867;SDS011;66168;45.478;11.060;2023-04-24T02:38:40;10.50;;;8.70;;
76867;SDS011;66168;45.478;11.060;2023-04-24T02:41:07;11.00;;;8.90;;
76867;SDS011;66168;45.478;11.060;2023-04-24T02:43:34;9.90;;;7.80;;
76867;SDS011;66168;45.478;11.060;2023-04-24T02:46:01;11.10;;;8.50;;
76867;SDS011;66168;45.478;11.060;2023-04-24T02:48:27;9.00;;;7.90;;
76867;SDS011;66168;45.478;11.060;2023-04-24T02:50:54;9.40;;;7.60;;
76867;SDS011;66168;45.478;11.060;2023-04-24T02:53:21;12.70;;;7.70;;
76867;SDS011;66168;45.478;11.060;2023-04-24T02:55:49;9.40;;;7.80;;
76867;SDS011;66168;45.478;11.060;2023-04-24T02:58:15;8.20;;;7.10;;
76867;SDS011;66168;45.478;11.060;2023-04-24T03:00:43;8.50;;;7.10;;
76867;SDS011;66168;45.478;11.060;2023-04-24T03:03:10;9.10;;;7.20;;
76867;SDS011;66168;45.478;11.060;2023-04-24T03:05:37;8.40;;;7.30;;
76867;SDS011;66168;45.478;11.060;2023-04-24T03:08:04;9.20;;;7.50;;
76867;SDS011;66168;45.478;11.060;2023-04-24T03:10:31;9.60;;;7.20;;
76867;SDS011;66168;45.478;11.060;2023-04-24T03:12:58;10.30;;;7.50;;
76867;SDS011;66168;45.478;11.060;2023-04-24T03:15:25;10.20;;;6.70;;
76867;SDS011;66168;45.478;11.060;2023-04-24T03:17:53;8.50;;;6.40;;
76867;SDS011;66168;45.478;11.060;2023-04-24T03:20:22;6.60;;;5.90;;
76867;SDS011;66168;45.478;11.060;2023-04-24T03:22:49;9.20;;;7.00;;
76867;SDS011;66168;45.478;11.060;2023-04-24T03:25:16;8.90;;;7.00;;
76867;SDS011;66168;45.478;11.060;2023-04-24T03:27:43;9.10;;;7.20;;
76867;SDS011;66168;45.478;11.060;2023-04-24T03:30:30;11.00;;;7.60;;
76867;SDS011;66168;45.478;11.060;2023-04-24T03:32:58;11.60;;;8.80;;
76867;SDS011;66168;45.478;11.060;2023-04-24T03:35:28;15.10;;;9.00;;
76867;SDS011;66168;45.478;11.060;2023-04-24T03:37:55;12.10;;;8.80;;
76867;SDS011;66168;45.478;11.060;2023-04-24T03:40:46;10.70;;;9.10;;
76867;SDS011;66168;45.478;11.060;2023-04-24T03:43:31;12.50;;;8.60;;
76867;SDS011;66168;45.478;11.060;2023-04-24T03:46:00;12.70;;;9.20;;
76867;SDS011;66168;45.478;11.060;2023-04-24T03:48:27;11.80;;;8.40;;
76867;SDS011;66168;45.478;11.060;2023-04-24T03:50:54;11.50;;;9.20;;
76867;SDS011;66168;45.478;11.060;2023-04-24T03:53:21;11.20;;;9.40;;
76867;SDS011;66168;45.478;11.060;2023-04-24T03:55:48;11.60;;;8.50;;
76867;SDS011;66168;45.478;11.060;2023-04-24T03:58:15;9.90;;;8.30;;
76867;SDS011;66168;45.478;11.060;2023-04-24T04:00:42;10.20;;;8.20;;
76867;SDS011;66168;45.478;11.060;2023-04-24T04:03:31;8.00;;;6.60;;
76867;SDS011;66168;45.478;11.060;2023-04-24T04:05:58;8.10;;;7.00;;
76867;SDS011;66168;45.478;11.060;2023-04-24T04:08:25;8.70;;;7.70;;
76867;SDS011;66168;45.478;11.060;2023-04-24T04:10:52;8.80;;;7.80;;
76867;SDS011;66168;45.478;11.060;2023-04-24T04:13:19;8.60;;;7.50;;
76867;SDS011;66168;45.478;11.060;2023-04-24T04:15:45;9.60;;;7.80;;
76867;SDS011;66168;45.478;11.060;2023-04-24T04:18:12;10.10;;;7.60;;
76867;SDS011;66168;45.478;11.060;2023-04-24T04:20:39;11.20;;;7.70;;
76867;SDS011;66168;45.478;11.060;2023-04-24T04:23:06;8.00;;;6.60;;
76867;SDS011;66168;45.478;11.060;2023-04-24T04:25:55;11.50;;;7.60;;
76867;SDS011;66168;45.478;11.060;2023-04-24T04:28:24;10.60;;;8.80;;
76867;SDS011;66168;45.478;11.060;2023-04-24T04:30:51;10.60;;;8.30;;
76867;SDS011;66168;45.478;11.060;2023-04-24T04:33:21;10.80;;;8.60;;
76867;SDS011;66168;45.478;11.060;2023-04-24T04:35:49;8.70;;;7.00;;
76867;SDS011;66168;45.478;11.060;2023-04-24T04:38:17;9.10;;;8.10;;
76867;SDS011;66168;45.478;11.060;2023-04-24T04:40:55;9.90;;;6.70;;
76867;SDS011;66168;45.478;11.060;2023-04-24T04:43:23;7.20;;;6.10;;
76867;SDS011;66168;45.478;11.060;2023-04-24T04:45:54;7.10;;;6.40;;
76867;SDS011;66168;45.478;11.060;2023-04-24T04:51:08;8.50;;;6.90;;
76867;SDS011;66168;45.478;11.060;2023-04-24T04:53:35;8.80;;;6.50;;
76867;SDS011;66168;45.478;11.060;2023-04-24T04:56:02;4.40;;;4.00;;
76867;SDS011;66168;45.478;11.060;2023-04-24T04:58:39;4.80;;;4.30;;
76867;SDS011;66168;45.478;11.060;2023-04-24T05:01:08;5.90;;;4.30;;
76867;SDS011;66168;45.478;11.060;2023-04-24T05:03:39;5.30;;;3.90;;
76867;SDS011;66168;45.478;11.060;2023-04-24T05:06:08;3.20;;;2.60;;
76867;SDS011;66168;45.478;11.060;2023-04-24T05:08:37;3.40;;;2.90;;
76867;SDS011;66168;45.478;11.060;2023-04-24T05:11:07;1.80;;;1.70;;
76867;SDS011;66168;45.478;11.060;2023-04-24T05:13:33;2.40;;;2.10;;
76867;SDS011;66168;45.478;11.060;2023-04-24T05:16:29;2.50;;;1.60;;
76867;SDS011;66168;45.478;11.060;2023-04-24T05:18:57;1.40;;;1.00;;
76867;SDS011;66168;45.478;11.060;2023-04-24T05:21:28;1.30;;;1.00;;
76867;SDS011;66168;45.478;11.060;2023-04-24T05:23:55;0.90;;;0.80;;
76867;SDS011;66168;45.478;11.060;2023-04-24T05:26:34;0.80;;;0.70;;
76867;SDS011;66168;45.478;11.060;2023-04-24T05:29:03;4.70;;;1.00;;
76867;SDS011;66168;45.478;11.060;2023-04-24T05:31:30;1.00;;;0.90;;
76867;SDS011;66168;45.478;11.060;2023-04-24T05:33:57;1.70;;;1.10;;
76867;SDS011;66168;45.478;11.060;2023-04-24T05:36:25;2.30;;;0.90;;
76867;SDS011;66168;45.478;11.060;2023-04-24T05:38:53;2.10;;;0.90;;
76867;SDS011;66168;45.478;11.060;2023-04-24T05:41:20;0.60;;;0.60;;
76867;SDS011;66168;45.478;11.060;2023-04-24T05:43:47;0.60;;;0.60;;
76867;SDS011;66168;45.478;11.060;2023-04-24T05:46:14;0.80;;;0.60;;
76867;SDS011;66168;45.478;11.060;2023-04-24T05:48:41;1.70;;;0.60;;
76867;SDS011;66168;45.478;11.060;2023-04-24T05:51:09;2.50;;;0.60;;
76867;SDS011;66168;45.478;11.060;2023-04-24T05:53:36;1.00;;;0.60;;
76867;SDS011;66168;45.478;11.060;2023-04-24T05:56:03;1.30;;;0.90;;
76867;SDS011;66168;45.478;11.060;2023-04-24T05:58:30;0.60;;;0.60;;
76867;SDS011;66168;45.478;11.060;2023-04-24T06:00:58;0.60;;;0.50;;
76867;SDS011;66168;45.478;11.060;2023-04-24T06:03:27;0.50;;;0.50;;
76867;SDS011;66168;45.478;11.060;2023-04-24T06:05:54;1.50;;;0.30;;
76867;SDS011;66168;45.478;11.060;2023-04-24T06:08:21;0.50;;;0.50;;
76867;SDS011;66168;45.478;11.060;2023-04-24T06:10:48;2.80;;;1.10;;
76867;SDS011;66168;45.478;11.060;2023-04-24T06:13:17;0.40;;;0.40;;
76867;SDS011;66168;45.478;11.060;2023-04-24T06:15:56;0.60;;;0.50;;
76867;SDS011;66168;45.478;11.060;2023-04-24T06:18:31;0.40;;;0.30;;
76867;SDS011;66168;45.478;11.060;2023-04-24T06:20:58;0.60;;;0.50;;
76867;SDS011;66168;45.478;11.060;2023-04-24T06:23:25;0.30;;;0.30;;
76867;SDS011;66168;45.478;11.060;2023-04-24T06:25:53;2.20;;;0.40;;
76867;SDS011;66168;45.478;11.060;2023-04-24T06:28:19;1.70;;;0.50;;
76867;SDS011;66168;45.478;11.060;2023-04-24T06:30:46;0.40;;;0.40;;
76867;SDS011;66168;45.478;11.060;2023-04-24T06:33:13;0.60;;;0.60;;
76867;SDS011;66168;45.478;11.060;2023-04-24T06:35:44;0.50;;;0.50;;
76867;SDS011;66168;45.478;11.060;2023-04-24T06:38:11;1.60;;;0.50;;
76867;SDS011;66168;45.478;11.060;2023-04-24T06:40:38;0.50;;;0.50;;
76867;SDS011;66168;45.478;11.060;2023-04-24T06:43:05;1.70;;;0.60;;
76867;SDS011;66168;45.478;11.060;2023-04-24T06:45:32;0.90;;;0.80;;
76867;SDS011;66168;45.478;11.060;2023-04-24T06:47:59;0.70;;;0.70;;
76867;SDS011;66168;45.478;11.060;2023-04-24T06:50:26;1.10;;;1.10;;
76867;SDS011;66168;45.478;11.060;2023-04-24T06:52:52;1.00;;;0.90;;
76867;SDS011;66168;45.478;11.060;2023-04-24T06:55:19;1.90;;;1.30;;
76867;SDS011;66168;45.478;11.060;2023-04-24T06:57:46;1.50;;;1.40;;
76867;SDS011;66168;45.478;11.060;2023-04-24T07:00:12;2.90;;;2.70;;
76867;SDS011;66168;45.478;11.060;2023-04-24T07:02:39;1.40;;;1.20;;
76867;SDS011;66168;45.478;11.060;2023-04-24T07:05:07;1.00;;;1.00;;
76867;SDS011;66168;45.478;11.060;2023-04-24T07:07:34;1.50;;;1.40;;
76867;SDS011;66168;45.478;11.060;2023-04-24T07:10:04;1.70;;;1.60;;
76867;SDS011;66168;45.478;11.060;2023-04-24T07:12:31;1.70;;;1.60;;
76867;SDS011;66168;45.478;11.060;2023-04-24T07:14:59;2.30;;;1.90;;
76867;SDS011;66168;45.478;11.060;2023-04-24T07:17:27;1.70;;;1.60;;
76867;SDS011;66168;45.478;11.060;2023-04-24T07:19:54;2.20;;;1.70;;
76867;SDS011;66168;45.478;11.060;2023-04-24T07:22:20;2.60;;;1.50;;
76867;SDS011;66168;45.478;11.060;2023-04-24T07:24:47;2.60;;;1.90;;
76867;SDS011;66168;45.478;11.060;2023-04-24T07:27:14;2.30;;;1.70;;
76867;SDS011;66168;45.478;11.060;2023-04-24T07:29:41;2.30;;;1.90;;
76867;SDS011;66168;45.478;11.060;2023-04-24T07:32:08;2.40;;;2.10;;
76867;SDS011;66168;45.478;11.060;2023-04-24T07:34:35;2.00;;;1.80;;
76867;SDS011;66168;45.478;11.060;2023-04-24T07:37:02;3.20;;;1.90;;
76867;SDS011;66168;45.478;11.060;2023-04-24T07:39:29;1.80;;;1.70;;
76867;SDS011;66168;45.478;11.060;2023-04-24T07:41:56;2.80;;;1.80;;
76867;SDS011;66168;45.478;11.060;2023-04-24T07:44:25;1.70;;;1.50;;
76867;SDS011;66168;45.478;11.060;2023-04-24T07:46:52;1.70;;;1.50;;
76867;SDS011;66168;45.478;11.060;2023-04-24T07:49:20;1.70;;;1.60;;
76867;SDS011;66168;45.478;11.060;2023-04-24T07:51:47;1.80;;;1.50;;
76867;SDS011;66168;45.478;11.060;2023-04-24T07:54:13;2.90;;;1.60;;
76867;SDS011;66168;45.478;11.060;2023-04-24T07:56:40;3.90;;;1.80;;
76867;SDS011;66168;45.478;11.060;2023-04-24T07:59:09;1.60;;;1.40;;
76867;SDS011;66168;45.478;11.060;2023-04-24T08:01:37;1.70;;;1.60;;
76867;SDS011;66168;45.478;11.060;2023-04-24T08:04:04;1.90;;;1.80;;
76867;SDS011;66168;45.478;11.060;2023-04-24T08:06:31;3.90;;;2.70;;
76867;SDS011;66168;45.478;11.060;2023-04-24T08:08:59;4.10;;;3.50;;
76867;SDS011;66168;45.478;11.060;2023-04-24T08:11:26;3.90;;;2.50;;
76867;SDS011;66168;45.478;11.060;2023-04-24T08:13:53;7.90;;;2.80;;
76867;SDS011;66168;45.478;11.060;2023-04-24T08:16:21;2.90;;;2.50;;
76867;SDS011;66168;45.478;11.060;2023-04-24T08:18:50;3.80;;;2.70;;
76867;SDS011;66168;45.478;11.060;2023-04-24T08:21:18;3.30;;;2.50;;
76867;SDS011;66168;45.478;11.060;2023-04-24T08:23:46;2.80;;;2.20;;
76867;SDS011;66168;45.478;11.060;2023-04-24T08:26:13;1.20;;;1.10;;
76867;SDS011;66168;45.478;11.060;2023-04-24T08:28:40;0.80;;;0.80;;
76867;SDS011;66168;45.478;11.060;2023-04-24T08:31:06;1.00;;;0.80;;
76867;SDS011;66168;45.478;11.060;2023-04-24T08:33:33;1.00;;;0.80;;
76867;SDS011;66168;45.478;11.060;2023-04-24T08:36:03;1.30;;;0.60;;
76867;SDS011;66168;45.478;11.060;2023-04-24T08:38:31;0.60;;;0.60;;
76867;SDS011;66168;45.478;11.060;2023-04-24T08:40:58;1.10;;;0.30;;
76867;SDS011;66168;45.478;11.060;2023-04-24T08:43:26;0.30;;;0.30;;
76867;SDS011;66168;45.478;11.060;2023-04-24T08:45:55;0.50;;;0.50;;
76867;SDS011;66168;45.478;11.060;2023-04-24T08:48:23;1.00;;;0.40;;
76867;SDS011;66168;45.478;11.060;2023-04-24T08:50:57;1.10;;;0.40;;
76867;SDS011;66168;45.478;11.060;2023-04-24T08:53:25;0.20;;;0.20;;
76867;SDS011;66168;45.478;11.060;2023-04-24T08:55:53;0.40;;;0.30;;
76867;SDS011;66168;45.478;11.060;2023-04-24T08:58:22;0.20;;;0.20;;
76867;SDS011;66168;45.478;11.060;2023-04-24T09:00:55;0.40;;;0.30;;
76867;SDS011;66168;45.478;11.060;2023-04-24T09:03:23;0.70;;;0.30;;
76867;SDS011;66168;45.478;11.060;2023-04-24T09:05:51;0.10;;;0.10;;
76867;SDS011;66168;45.478;11.060;2023-04-24T09:08:20;0.40;;;0.20;;
76867;SDS011;66168;45.478;11.060;2023-04-24T09:10:51;0.20;;;0.20;;
76867;SDS011;66168;45.478;11.060;2023-04-24T09:13:18;0.20;;;0.20;;
76867;SDS011;66168;45.478;11.060;2023-04-24T09:15:46;0.10;;;0.10;;
76867;SDS011;66168;45.478;11.060;2023-04-24T09:18:13;1.20;;;0.20;;
76867;SDS011;66168;45.478;11.060;2023-04-24T09:23:29;1.40;;;0.20;;
76867;SDS011;66168;45.478;11.060;2023-04-24T09:25:58;1.60;;;0.40;;
76867;SDS011;66168;45.478;11.060;2023-04-24T09:36:28;0.40;;;0.20;;
76867;SDS011;66168;45.478;11.060;2023-04-24T09:38:57;1.10;;;0.30;;
76867;SDS011;66168;45.478;11.060;2023-04-24T09:41:25;0.50;;;0.50;;
76867;SDS011;66168;45.478;11.060;2023-04-24T09:43:56;0.20;;;0.20;;
76867;SDS011;66168;45.478;11.060;2023-04-24T09:46:30;0.30;;;0.20;;
76867;SDS011;66168;45.478;11.060;2023-04-24T09:49:13;1.60;;;0.60;;
76867;SDS011;66168;45.478;11.060;2023-04-24T09:51:42;0.50;;;0.50;;
76867;SDS011;66168;45.478;11.060;2023-04-24T09:54:19;0.70;;;0.70;;
76867;SDS011;66168;45.478;11.060;2023-04-24T09:56:48;1.00;;;0.80;;
76867;SDS011;66168;45.478;11.060;2023-04-24T09:59:19;0.60;;;0.40;;
76867;SDS011;66168;45.478;11.060;2023-04-24T10:01:46;1.30;;;0.40;;
76867;SDS011;66168;45.478;11.060;2023-04-24T10:04:16;3.50;;;0.50;;
76867;SDS011;66168;45.478;11.060;2023-04-24T10:09:15;2.00;;;0.60;;
76867;SDS011;66168;45.478;11.060;2023-04-24T10:11:44;1.10;;;0.50;;
76867;SDS011;66168;45.478;11.060;2023-04-24T10:14:16;1.60;;;0.50;;
76867;SDS011;66168;45.478;11.060;2023-04-24T10:16:44;4.60;;;0.50;;
76867;SDS011;66168;45.478;11.060;2023-04-24T10:19:13;0.60;;;0.50;;
76867;SDS011;66168;45.478;11.060;2023-04-24T10:21:42;1.20;;;0.60;;
76867;SDS011;66168;45.478;11.060;2023-04-24T10:24:16;0.60;;;0.50;;
76867;SDS011;66168;45.478;11.060;2023-04-24T10:26:45;1.00;;;0.60;;
76867;SDS011;66168;45.478;11.060;2023-04-24T10:29:15;1.00;;;0.70;;
76867;SDS011;66168;45.478;11.060;2023-04-24T10:31:43;0.70;;;0.70;;
76867;SDS011;66168;45.478;11.060;2023-04-24T10:34:13;0.50;;;0.50;;
76867;SDS011;66168;45.478;11.060;2023-04-24T10:36:45;1.30;;;1.00;;
76867;SDS011;66168;45.478;11.060;2023-04-24T10:39:14;0.60;;;0.60;;
76867;SDS011;66168;45.478;11.060;2023-04-24T10:41:43;0.80;;;0.60;;
76867;SDS011;66168;45.478;11.060;2023-04-24T10:44:11;1.40;;;1.00;;
76867;SDS011;66168;45.478;11.060;2023-04-24T10:46:43;1.10;;;1.00;;
76867;SDS011;66168;45.478;11.060;2023-04-24T10:49:11;1.10;;;1.00;;
76867;SDS011;66168;45.478;11.060;2023-04-24T10:57:25;0.60;;;0.60;;
76867;SDS011;66168;45.478;11.060;2023-04-24T10:59:48;0.60;;;0.50;;
76867;SDS011;66168;45.478;11.060;2023-04-24T11:02:17;0.60;;;0.60;;
76867;SDS011;66168;45.478;11.060;2023-04-24T11:04:45;0.70;;;0.70;;
76867;SDS011;66168;45.478;11.060;2023-04-24T11:07:12;0.70;;;0.70;;
76867;SDS011;66168;45.478;11.060;2023-04-24T11:09:40;1.90;;;1.30;;
76867;SDS011;66168;45.478;11.060;2023-04-24T11:12:10;1.00;;;0.70;;
76867;SDS011;66168;45.478;11.060;2023-04-24T11:22:45;0.80;;;0.50;;
76867;SDS011;66168;45.478;11.060;2023-04-24T11:25:12;0.70;;;0.60;;
76867;SDS011;66168;45.478;11.060;2023-04-24T11:27:42;0.40;;;0.40;;
76867;SDS011;66168;45.478;11.060;2023-04-24T11:30:10;2.10;;;1.30;;
76867;SDS011;66168;45.478;11.060;2023-04-24T11:32:40;0.70;;;0.70;;
76867;SDS011;66168;45.478;11.060;2023-04-24T11:35:16;0.60;;;0.50;;
76867;SDS011;66168;45.478;11.060;2023-04-24T11:37:46;0.60;;;0.60;;
76867;SDS011;66168;45.478;11.060;2023-04-24T11:40:20;0.30;;;0.30;;
76867;SDS011;66168;45.478;11.060;2023-04-24T11:42:52;1.40;;;0.60;;
76867;SDS011;66168;45.478;11.060;2023-04-24T11:45:24;0.80;;;0.80;;
76867;SDS011;66168;45.478;11.060;2023-04-24T11:47:53;1.00;;;0.60;;
76867;SDS011;66168;45.478;11.060;2023-04-24T11:50:24;0.80;;;0.80;;
76867;SDS011;66168;45.478;11.060;2023-04-24T11:52:53;1.10;;;0.90;;
76867;SDS011;66168;45.478;11.060;2023-04-24T11:57:49;0.60;;;0.60;;
76867;SDS011;66168;45.478;11.060;2023-04-24T12:00:21;2.30;;;0.90;;
76867;SDS011;66168;45.478;11.060;2023-04-24T12:02:49;0.40;;;0.40;;
76867;SDS011;66168;45.478;11.060;2023-04-24T12:05:24;0.40;;;0.40;;
76867;SDS011;66168;45.478;11.060;2023-04-24T12:07:53;0.50;;;0.40;;
76867;SDS011;66168;45.478;11.060;2023-04-24T12:10:20;0.60;;;0.50;;
76867;SDS011;66168;45.478;11.060;2023-04-24T12:12:49;0.40;;;0.40;;
76867;SDS011;66168;45.478;11.060;2023-04-24T12:15:18;0.30;;;0.30;;
76867;SDS011;66168;45.478;11.060;2023-04-24T12:17:46;1.10;;;0.40;;
76867;SDS011;66168;45.478;11.060;2023-04-24T12:20:13;0.30;;;0.30;;
76867;SDS011;66168;45.478;11.060;2023-04-24T12:25:17;0.30;;;0.30;;
76867;SDS011;66168;45.478;11.060;2023-04-24T12:27:45;0.90;;;0.60;;
76867;SDS011;66168;45.478;11.060;2023-04-24T12:30:14;0.30;;;0.30;;
76867;SDS011;66168;45.478;11.060;2023-04-24T12:32:43;0.60;;;0.50;;
76867;SDS011;66168;45.478;11.060;2023-04-24T12:35:11;0.70;;;0.50;;
76867;SDS011;66168;45.478;11.060;2023-04-24T12:37:41;0.30;;;0.30;;
76867;SDS011;66168;45.478;11.060;2023-04-24T12:40:12;1.00;;;0.40;;
76867;SDS011;66168;45.478;11.060;2023-04-24T12:45:11;0.30;;;0.30;;
76867;SDS011;66168;45.478;11.060;2023-04-24T12:47:39;0.40;;;0.40;;
76867;SDS011;66168;45.478;11.060;2023-04-24T12:50:10;0.30;;;0.30;;
76867;SDS011;66168;45.478;11.060;2023-04-24T12:52:38;0.30;;;0.30;;
76867;SDS011;66168;45.478;11.060;2023-04-24T12:55:06;0.60;;;0.30;;
76867;SDS011;66168;45.478;11.060;2023-04-24T12:57:38;0.10;;;0.10;;
76867;SDS011;66168;45.478;11.060;2023-04-24T13:00:07;0.20;;;0.20;;
76867;SDS011;66168;45.478;11.060;2023-04-24T13:02:35;0.90;;;0.30;;
76867;SDS011;66168;45.478;11.060;2023-04-24T13:05:03;0.40;;;0.40;;
76867;SDS011;66168;45.478;11.060;2023-04-24T13:07:29;0.60;;;0.30;;
76867;SDS011;66168;45.478;11.060;2023-04-24T13:09:56;0.40;;;0.40;;
76867;SDS011;66168;45.478;11.060;2023-04-24T13:12:24;0.30;;;0.30;;
76867;SDS011;66168;45.478;11.060;2023-04-24T13:14:52;0.60;;;0.50;;
76867;SDS011;66168;45.478;11.060;2023-04-24T13:17:19;0.90;;;0.30;;
76867;SDS011;66168;45.478;11.060;2023-04-24T13:19:46;0.70;;;0.70;;
76867;SDS011;66168;45.478;11.060;2023-04-24T13:22:16;0.60;;;0.60;;
76867;SDS011;66168;45.478;11.060;2023-04-24T13:24:45;1.00;;;0.50;;
76867;SDS011;66168;45.478;11.060;2023-04-24T13:27:11;0.40;;;0.30;;
76867;SDS011;66168;45.478;11.060;2023-04-24T13:29:38;0.30;;;0.30;;
76867;SDS011;66168;45.478;11.060;2023-04-24T13:32:05;1.00;;;0.30;;
76867;SDS011;66168;45.478;11.060;2023-04-24T13:34:32;0.40;;;0.40;;
76867;SDS011;66168;45.478;11.060;2023-04-24T13:37:00;0.20;;;0.20;;
76867;SDS011;66168;45.478;11.060;2023-04-24T13:39:27;0.50;;;0.50;;
76867;SDS011;66168;45.478;11.060;2023-04-24T13:41:54;0.20;;;0.20;;
76867;SDS011;66168;45.478;11.060;2023-04-24T13:44:21;0.20;;;0.20;;
76867;SDS011;66168;45.478;11.060;2023-04-24T13:46:50;0.50;;;0.50;;
76867;SDS011;66168;45.478;11.060;2023-04-24T13:49:20;0.50;;;0.50;;
76867;SDS011;66168;45.478;11.060;2023-04-24T13:51:48;0.50;;;0.50;;
76867;SDS011;66168;45.478;11.060;2023-04-24T13:54:15;0.40;;;0.40;;
76867;SDS011;66168;45.478;11.060;2023-04-24T13:56:41;0.70;;;0.70;;
76867;SDS011;66168;45.478;11.060;2023-04-24T13:59:08;1.10;;;0.70;;
76867;SDS011;66168;45.478;11.060;2023-04-24T14:01:35;1.10;;;1.00;;
76867;SDS011;66168;45.478;11.060;2023-04-24T14:04:03;3.30;;;1.20;;
76867;SDS011;66168;45.478;11.060;2023-04-24T14:06:30;1.20;;;0.90;;
76867;SDS011;66168;45.478;11.060;2023-04-24T14:08:57;0.90;;;0.90;;
76867;SDS011;66168;45.478;11.060;2023-04-24T14:11:24;0.80;;;0.80;;
76867;SDS011;66168;45.478;11.060;2023-04-24T14:13:52;0.80;;;0.80;;
76867;SDS011;66168;45.478;11.060;2023-04-24T14:16:20;1.00;;;0.80;;
76867;SDS011;66168;45.478;11.060;2023-04-24T14:18:47;2.10;;;1.40;;
76867;SDS011;66168;45.478;11.060;2023-04-24T14:21:14;1.10;;;1.00;;
76867;SDS011;66168;45.478;11.060;2023-04-24T14:23:40;0.80;;;0.80;;
76867;SDS011;66168;45.478;11.060;2023-04-24T14:26:08;0.80;;;0.80;;
76867;SDS011;66168;45.478;11.060;2023-04-24T14:28:34;0.80;;;0.80;;
76867;SDS011;66168;45.478;11.060;2023-04-24T14:31:02;0.80;;;0.80;;
76867;SDS011;66168;45.478;11.060;2023-04-24T14:33:28;1.20;;;1.00;;
76867;SDS011;66168;45.478;11.060;2023-04-24T14:35:55;1.30;;;1.00;;
76867;SDS011;66168;45.478;11.060;2023-04-24T14:38:22;0.80;;;0.80;;
76867;SDS011;66168;45.478;11.060;2023-04-24T14:40:48;1.70;;;1.00;;
76867;SDS011;66168;45.478;11.060;2023-04-24T14:43:31;1.90;;;0.90;;
76867;SDS011;66168;45.478;11.060;2023-04-24T14:45:59;1.20;;;1.10;;
76867;SDS011;66168;45.478;11.060;2023-04-24T14:48:25;1.10;;;1.00;;
76867;SDS011;66168;45.478;11.060;2023-04-24T14:50:52;1.00;;;0.90;;
76867;SDS011;66168;45.478;11.060;2023-04-24T14:53:19;1.40;;;1.20;;
76867;SDS011;66168;45.478;11.060;2023-04-24T14:55:45;1.40;;;1.30;;
76867;SDS011;66168;45.478;11.060;2023-04-24T14:58:12;1.00;;;1.00;;
76867;SDS011;66168;45.478;11.060;2023-04-24T15:00:39;1.60;;;1.10;;
76867;SDS011;66168;45.478;11.060;2023-04-24T15:03:06;1.30;;;1.00;;
76867;SDS011;66168;45.478;11.060;2023-04-24T15:05:34;1.00;;;1.00;;
76867;SDS011;66168;45.478;11.060;2023-04-24T15:08:01;0.90;;;0.90;;
76867;SDS011;66168;45.478;11.060;2023-04-24T15:10:27;1.10;;;1.00;;
76867;SDS011;66168;45.478;11.060;2023-04-24T15:12:55;1.70;;;1.20;;
76867;SDS011;66168;45.478;11.060;2023-04-24T15:15:22;1.30;;;1.20;;
76867;SDS011;66168;45.478;11.060;2023-04-24T15:17:49;1.60;;;1.50;;
76867;SDS011;66168;45.478;11.060;2023-04-24T15:20:16;1.90;;;1.80;;